sensor_id;sensor_type;location;lat;lon;timestamp;P1;durP1;ratioP1;P2;durP2;ratioP2
11921;SDS011;6021;51.182;3.160;2022-11-20T00:01:53;29.27;;;19.73;;
11921;SDS011;6021;51.182;3.160;2022-11-20T00:04:22;28.00;;;18.83;;
11921;SDS011;6021;51.182;3.160;2022-11-20T00:06:50;27.77;;;19.67;;
11921;SDS011;6021;51.182;3.160;2022-11-20T00:09:18;29.90;;;20.53;;
11921;SDS011;6021;51.182;3.160;2022-11-20T00:11:53;29.17;;;20.93;;
11921;SDS011;6021;51.182;3.160;2022-11-20T00:14:22;27.43;;;20.00;;
11921;SDS011;6021;51.182;3.160;2022-11-20T00:16:50;31.40;;;20.27;;
11921;SDS011;6021;51.182;3.160;2022-11-20T00:19:18;29.07;;;20.10;;
11921;SDS011;6021;51.182;3.160;2022-11-20T00:21:48;27.20;;;18.87;;
11921;SDS011;6021;51.182;3.160;2022-11-20T00:24:17;25.10;;;17.77;;
11921;SDS011;6021;51.182;3.160;2022-11-20T00:26:46;27.17;;;18.33;;
11921;SDS011;6021;51.182;3.160;2022-11-20T00:29:14;22.63;;;17.30;;
11921;SDS011;6021;51.182;3.160;2022-11-20T00:50:48;20.53;;;16.23;;
11921;SDS011;6021;51.182;3.160;2022-11-20T00:53:17;22.50;;;17.77;;
11921;SDS011;6021;51.182;3.160;2022-11-20T00:55:58;23.97;;;18.73;;
11921;SDS011;6021;51.182;3.160;2022-11-20T00:58:32;24.07;;;18.63;;
11921;SDS011;6021;51.182;3.160;2022-11-20T01:01:05;24.53;;;17.80;;
11921;SDS011;6021;51.182;3.160;2022-11-20T01:03:40;27.63;;;19.20;;
11921;SDS011;6021;51.182;3.160;2022-11-20T01:11:22;27.57;;;20.60;;
11921;SDS011;6021;51.182;3.160;2022-11-20T01:13:52;27.97;;;20.27;;
11921;SDS011;6021;51.182;3.160;2022-11-20T01:16:25;26.07;;;18.97;;
11921;SDS011;6021;51.182;3.160;2022-11-20T01:18:56;33.93;;;21.53;;
11921;SDS011;6021;51.182;3.160;2022-11-20T01:21:28;28.57;;;19.90;;
11921;SDS011;6021;51.182;3.160;2022-11-20T01:23:58;29.63;;;21.13;;
11921;SDS011;6021;51.182;3.160;2022-11-20T01:26:28;32.77;;;21.90;;
11921;SDS011;6021;51.182;3.160;2022-11-20T01:47:07;27.87;;;20.30;;
11921;SDS011;6021;51.182;3.160;2022-11-20T02:00:42;33.93;;;23.40;;
11921;SDS011;6021;51.182;3.160;2022-11-20T02:06:35;36.60;;;24.13;;
11921;SDS011;6021;51.182;3.160;2022-11-20T02:13:28;30.90;;;22.30;;
11921;SDS011;6021;51.182;3.160;2022-11-20T02:18:50;32.27;;;22.40;;
11921;SDS011;6021;51.182;3.160;2022-11-20T02:21:23;31.67;;;22.23;;
11921;SDS011;6021;51.182;3.160;2022-11-20T02:47:19;33.63;;;23.90;;
11921;SDS011;6021;51.182;3.160;2022-11-20T02:49:47;33.27;;;23.37;;
11921;SDS011;6021;51.182;3.160;2022-11-20T02:52:15;38.83;;;24.80;;
11921;SDS011;6021;51.182;3.160;2022-11-20T02:54:44;39.37;;;25.30;;
11921;SDS011;6021;51.182;3.160;2022-11-20T02:57:12;41.83;;;25.67;;
11921;SDS011;6021;51.182;3.160;2022-11-20T02:59:40;40.87;;;27.00;;
11921;SDS011;6021;51.182;3.160;2022-11-20T03:02:09;42.60;;;27.43;;
11921;SDS011;6021;51.182;3.160;2022-11-20T03:09:42;47.63;;;28.60;;
11921;SDS011;6021;51.182;3.160;2022-11-20T03:14:49;47.73;;;29.63;;
11921;SDS011;6021;51.182;3.160;2022-11-20T03:17:18;49.03;;;29.20;;
11921;SDS011;6021;51.182;3.160;2022-11-20T03:19:47;48.40;;;29.80;;
11921;SDS011;6021;51.182;3.160;2022-11-20T03:24:58;43.43;;;27.53;;
11921;SDS011;6021;51.182;3.160;2022-11-20T03:30:02;40.47;;;27.30;;
11921;SDS011;6021;51.182;3.160;2022-11-20T03:32:31;43.87;;;26.67;;
11921;SDS011;6021;51.182;3.160;2022-11-20T03:35:00;47.30;;;27.63;;
11921;SDS011;6021;51.182;3.160;2022-11-20T03:37:29;48.80;;;28.67;;
11921;SDS011;6021;51.182;3.160;2022-11-20T03:42:33;49.37;;;30.23;;
11921;SDS011;6021;51.182;3.160;2022-11-20T03:45:21;48.13;;;29.80;;
11921;SDS011;6021;51.182;3.160;2022-11-20T03:50:22;44.43;;;27.30;;
11921;SDS011;6021;51.182;3.160;2022-11-20T03:58:02;53.40;;;29.55;;
11921;SDS011;6021;51.182;3.160;2022-11-20T04:00:31;56.03;;;30.33;;
11921;SDS011;6021;51.182;3.160;2022-11-20T04:03:00;59.20;;;32.07;;
11921;SDS011;6021;51.182;3.160;2022-11-20T04:08:12;52.23;;;31.00;;
11921;SDS011;6021;51.182;3.160;2022-11-20T04:13:16;66.20;;;33.07;;
11921;SDS011;6021;51.182;3.160;2022-11-20T04:15:52;59.87;;;32.10;;
11921;SDS011;6021;51.182;3.160;2022-11-20T04:18:17;60.00;;;32.97;;
11921;SDS011;6021;51.182;3.160;2022-11-20T04:23:16;62.23;;;33.10;;
11921;SDS011;6021;51.182;3.160;2022-11-20T04:25:45;62.00;;;33.30;;
11921;SDS011;6021;51.182;3.160;2022-11-20T04:30:50;65.00;;;33.07;;
11921;SDS011;6021;51.182;3.160;2022-11-20T04:33:19;59.90;;;33.27;;
11921;SDS011;6021;51.182;3.160;2022-11-20T04:35:48;63.60;;;32.80;;
11921;SDS011;6021;51.182;3.160;2022-11-20T04:40:55;69.73;;;34.60;;
11921;SDS011;6021;51.182;3.160;2022-11-20T04:43:27;85.50;;;37.97;;
11921;SDS011;6021;51.182;3.160;2022-11-20T04:45:56;90.40;;;38.50;;
11921;SDS011;6021;51.182;3.160;2022-11-20T04:48:25;92.93;;;37.50;;
11921;SDS011;6021;51.182;3.160;2022-11-20T04:50:55;85.57;;;39.07;;
11921;SDS011;6021;51.182;3.160;2022-11-20T04:55:59;85.47;;;38.63;;
11921;SDS011;6021;51.182;3.160;2022-11-20T04:58:29;78.13;;;37.27;;
11921;SDS011;6021;51.182;3.160;2022-11-20T05:01:00;80.83;;;37.60;;
11921;SDS011;6021;51.182;3.160;2022-11-20T05:03:33;80.20;;;38.10;;
11921;SDS011;6021;51.182;3.160;2022-11-20T05:06:02;76.00;;;36.80;;
11921;SDS011;6021;51.182;3.160;2022-11-20T05:08:32;70.13;;;37.33;;
11921;SDS011;6021;51.182;3.160;2022-11-20T05:11:02;67.87;;;36.60;;
11921;SDS011;6021;51.182;3.160;2022-11-20T05:13:33;63.90;;;37.10;;
11921;SDS011;6021;51.182;3.160;2022-11-20T05:16:06;67.43;;;36.07;;
11921;SDS011;6021;51.182;3.160;2022-11-20T05:18:39;69.20;;;35.50;;
11921;SDS011;6021;51.182;3.160;2022-11-20T05:21:09;68.27;;;35.00;;
11921;SDS011;6021;51.182;3.160;2022-11-20T05:23:38;66.37;;;35.10;;
11921;SDS011;6021;51.182;3.160;2022-11-20T05:26:07;58.63;;;35.03;;
11921;SDS011;6021;51.182;3.160;2022-11-20T05:28:37;63.40;;;37.53;;
11921;SDS011;6021;51.182;3.160;2022-11-20T05:31:06;67.53;;;37.40;;
11921;SDS011;6021;51.182;3.160;2022-11-20T05:33:36;69.03;;;36.83;;
11921;SDS011;6021;51.182;3.160;2022-11-20T05:36:07;66.67;;;36.67;;
11921;SDS011;6021;51.182;3.160;2022-11-20T05:38:36;72.73;;;36.10;;
11921;SDS011;6021;51.182;3.160;2022-11-20T05:41:13;68.07;;;38.80;;
11921;SDS011;6021;51.182;3.160;2022-11-20T05:43:39;69.10;;;38.60;;
11921;SDS011;6021;51.182;3.160;2022-11-20T05:46:09;68.40;;;36.93;;
11921;SDS011;6021;51.182;3.160;2022-11-20T05:48:40;71.00;;;37.87;;
11921;SDS011;6021;51.182;3.160;2022-11-20T05:51:10;69.87;;;38.67;;
11921;SDS011;6021;51.182;3.160;2022-11-20T05:53:40;72.53;;;37.50;;
11921;SDS011;6021;51.182;3.160;2022-11-20T05:56:18;65.13;;;36.17;;
11921;SDS011;6021;51.182;3.160;2022-11-20T05:58:48;67.33;;;35.03;;
11921;SDS011;6021;51.182;3.160;2022-11-20T06:01:21;59.30;;;32.90;;
11921;SDS011;6021;51.182;3.160;2022-11-20T06:06:22;55.60;;;30.90;;
11921;SDS011;6021;51.182;3.160;2022-11-20T06:08:52;54.80;;;29.43;;
11921;SDS011;6021;51.182;3.160;2022-11-20T06:11:21;57.07;;;30.80;;
11921;SDS011;6021;51.182;3.160;2022-11-20T06:13:49;53.07;;;29.23;;
11921;SDS011;6021;51.182;3.160;2022-11-20T06:16:18;56.47;;;29.60;;
11921;SDS011;6021;51.182;3.160;2022-11-20T06:18:48;53.33;;;28.87;;
11921;SDS011;6021;51.182;3.160;2022-11-20T06:21:18;52.10;;;29.43;;
11921;SDS011;6021;51.182;3.160;2022-11-20T06:23:49;47.10;;;28.17;;
11921;SDS011;6021;51.182;3.160;2022-11-20T06:26:20;54.43;;;29.03;;
11921;SDS011;6021;51.182;3.160;2022-11-20T06:28:50;61.03;;;29.23;;
11921;SDS011;6021;51.182;3.160;2022-11-20T06:31:21;74.70;;;29.97;;
11921;SDS011;6021;51.182;3.160;2022-11-20T06:33:52;63.60;;;30.27;;
11921;SDS011;6021;51.182;3.160;2022-11-20T06:36:21;56.33;;;28.57;;
11921;SDS011;6021;51.182;3.160;2022-11-20T06:38:50;55.90;;;27.87;;
11921;SDS011;6021;51.182;3.160;2022-11-20T06:41:20;60.53;;;29.47;;
11921;SDS011;6021;51.182;3.160;2022-11-20T06:43:49;53.70;;;28.63;;
11921;SDS011;6021;51.182;3.160;2022-11-20T06:46:18;48.33;;;27.97;;
11921;SDS011;6021;51.182;3.160;2022-11-20T06:48:47;47.17;;;26.40;;
11921;SDS011;6021;51.182;3.160;2022-11-20T06:51:16;45.17;;;26.97;;
11921;SDS011;6021;51.182;3.160;2022-11-20T06:53:44;50.77;;;26.70;;
11921;SDS011;6021;51.182;3.160;2022-11-20T06:56:13;52.57;;;26.47;;
11921;SDS011;6021;51.182;3.160;2022-11-20T06:58:41;48.53;;;26.23;;
11921;SDS011;6021;51.182;3.160;2022-11-20T07:01:10;73.07;;;28.77;;
11921;SDS011;6021;51.182;3.160;2022-11-20T07:03:40;45.73;;;27.07;;
11921;SDS011;6021;51.182;3.160;2022-11-20T07:06:09;65.47;;;28.67;;
11921;SDS011;6021;51.182;3.160;2022-11-20T07:13:44;47.00;;;25.77;;
11921;SDS011;6021;51.182;3.160;2022-11-20T07:16:12;44.33;;;26.03;;
11921;SDS011;6021;51.182;3.160;2022-11-20T07:18:40;42.30;;;25.20;;
11921;SDS011;6021;51.182;3.160;2022-11-20T07:21:09;49.73;;;26.97;;
11921;SDS011;6021;51.182;3.160;2022-11-20T07:23:39;58.13;;;28.20;;
11921;SDS011;6021;51.182;3.160;2022-11-20T07:26:08;51.68;;;27.85;;
11921;SDS011;6021;51.182;3.160;2022-11-20T07:28:38;60.27;;;29.07;;
11921;SDS011;6021;51.182;3.160;2022-11-20T07:31:06;70.10;;;28.90;;
11921;SDS011;6021;51.182;3.160;2022-11-20T07:33:35;55.63;;;28.50;;
11921;SDS011;6021;51.182;3.160;2022-11-20T07:36:03;77.50;;;32.07;;
11921;SDS011;6021;51.182;3.160;2022-11-20T07:38:31;84.83;;;33.73;;
11921;SDS011;6021;51.182;3.160;2022-11-20T07:41:00;88.37;;;32.83;;
11921;SDS011;6021;51.182;3.160;2022-11-20T07:43:28;84.70;;;32.70;;
11921;SDS011;6021;51.182;3.160;2022-11-20T07:46:02;102.27;;;33.60;;
11921;SDS011;6021;51.182;3.160;2022-11-20T07:48:26;84.23;;;32.47;;
11921;SDS011;6021;51.182;3.160;2022-11-20T07:50:55;85.83;;;31.97;;
11921;SDS011;6021;51.182;3.160;2022-11-20T07:53:24;67.37;;;30.47;;
11921;SDS011;6021;51.182;3.160;2022-11-20T07:55:52;65.13;;;31.57;;
11921;SDS011;6021;51.182;3.160;2022-11-20T07:58:21;65.50;;;29.87;;
11921;SDS011;6021;51.182;3.160;2022-11-20T08:00:49;73.73;;;31.43;;
11921;SDS011;6021;51.182;3.160;2022-11-20T08:03:18;67.20;;;30.40;;
11921;SDS011;6021;51.182;3.160;2022-11-20T08:05:46;79.33;;;31.37;;
11921;SDS011;6021;51.182;3.160;2022-11-20T08:08:14;74.70;;;31.73;;
11921;SDS011;6021;51.182;3.160;2022-11-20T08:10:43;69.70;;;31.27;;
11921;SDS011;6021;51.182;3.160;2022-11-20T08:13:11;72.17;;;32.43;;
11921;SDS011;6021;51.182;3.160;2022-11-20T08:15:58;64.17;;;29.70;;
11921;SDS011;6021;51.182;3.160;2022-11-20T08:18:26;53.63;;;28.03;;
11921;SDS011;6021;51.182;3.160;2022-11-20T08:20:55;56.63;;;28.97;;
11921;SDS011;6021;51.182;3.160;2022-11-20T08:23:23;58.00;;;29.43;;
11921;SDS011;6021;51.182;3.160;2022-11-20T08:25:51;58.60;;;28.13;;
11921;SDS011;6021;51.182;3.160;2022-11-20T08:28:20;62.60;;;28.57;;
11921;SDS011;6021;51.182;3.160;2022-11-20T08:30:48;63.83;;;29.77;;
11921;SDS011;6021;51.182;3.160;2022-11-20T08:33:17;57.43;;;29.30;;
11921;SDS011;6021;51.182;3.160;2022-11-20T08:35:46;60.17;;;29.07;;
11921;SDS011;6021;51.182;3.160;2022-11-20T08:40:50;47.87;;;27.47;;
11921;SDS011;6021;51.182;3.160;2022-11-20T08:43:36;54.27;;;28.23;;
11921;SDS011;6021;51.182;3.160;2022-11-20T08:46:04;58.03;;;29.27;;
11921;SDS011;6021;51.182;3.160;2022-11-20T08:48:33;54.60;;;29.33;;
11921;SDS011;6021;51.182;3.160;2022-11-20T08:51:01;56.43;;;29.03;;
11921;SDS011;6021;51.182;3.160;2022-11-20T08:53:29;56.67;;;28.67;;
11921;SDS011;6021;51.182;3.160;2022-11-20T08:55:58;56.50;;;28.73;;
11921;SDS011;6021;51.182;3.160;2022-11-20T08:58:28;54.00;;;29.17;;
11921;SDS011;6021;51.182;3.160;2022-11-20T09:00:56;57.10;;;29.20;;
11921;SDS011;6021;51.182;3.160;2022-11-20T09:03:25;47.90;;;27.37;;
11921;SDS011;6021;51.182;3.160;2022-11-20T09:05:57;49.20;;;28.33;;
11921;SDS011;6021;51.182;3.160;2022-11-20T09:08:27;51.43;;;28.57;;
11921;SDS011;6021;51.182;3.160;2022-11-20T09:10:57;51.50;;;28.07;;
11921;SDS011;6021;51.182;3.160;2022-11-20T09:13:27;43.97;;;26.40;;
11921;SDS011;6021;51.182;3.160;2022-11-20T09:15:57;42.03;;;26.00;;
11921;SDS011;6021;51.182;3.160;2022-11-20T09:18:31;42.57;;;26.03;;
11921;SDS011;6021;51.182;3.160;2022-11-20T09:21:02;40.27;;;24.50;;
11921;SDS011;6021;51.182;3.160;2022-11-20T09:26:10;43.60;;;25.40;;
11921;SDS011;6021;51.182;3.160;2022-11-20T09:28:41;42.27;;;24.43;;
11921;SDS011;6021;51.182;3.160;2022-11-20T09:33:51;36.63;;;22.97;;
11921;SDS011;6021;51.182;3.160;2022-11-20T09:36:19;38.03;;;23.37;;
11921;SDS011;6021;51.182;3.160;2022-11-20T09:55:46;32.13;;;20.77;;
11921;SDS011;6021;51.182;3.160;2022-11-20T10:01:00;33.23;;;20.17;;
11921;SDS011;6021;51.182;3.160;2022-11-20T10:03:43;27.00;;;18.50;;
11921;SDS011;6021;51.182;3.160;2022-11-20T10:06:15;26.73;;;17.13;;
11921;SDS011;6021;51.182;3.160;2022-11-20T10:08:46;28.17;;;18.03;;
11921;SDS011;6021;51.182;3.160;2022-11-20T10:14:18;23.13;;;15.67;;
11921;SDS011;6021;51.182;3.160;2022-11-20T10:19:34;21.87;;;15.00;;
11921;SDS011;6021;51.182;3.160;2022-11-20T10:25:19;18.47;;;12.30;;
11921;SDS011;6021;51.182;3.160;2022-11-20T10:30:25;13.17;;;9.97;;
11921;SDS011;6021;51.182;3.160;2022-11-20T10:33:17;14.50;;;9.40;;
11921;SDS011;6021;51.182;3.160;2022-11-20T10:35:31;10.67;;;8.53;;
11921;SDS011;6021;51.182;3.160;2022-11-20T10:38:06;14.30;;;8.27;;
11921;SDS011;6021;51.182;3.160;2022-11-20T10:40:44;9.30;;;7.07;;
11921;SDS011;6021;51.182;3.160;2022-11-20T10:46:17;9.03;;;6.40;;
11921;SDS011;6021;51.182;3.160;2022-11-20T10:56:52;6.43;;;4.53;;
11921;SDS011;6021;51.182;3.160;2022-11-20T10:59:41;8.10;;;4.13;;
11921;SDS011;6021;51.182;3.160;2022-11-20T11:02:18;6.17;;;4.07;;
11921;SDS011;6021;51.182;3.160;2022-11-20T11:04:54;5.93;;;4.17;;
11921;SDS011;6021;51.182;3.160;2022-11-20T11:07:23;6.30;;;4.07;;
11921;SDS011;6021;51.182;3.160;2022-11-20T11:09:59;5.78;;;3.65;;
11921;SDS011;6021;51.182;3.160;2022-11-20T11:12:29;5.27;;;3.60;;
11921;SDS011;6021;51.182;3.160;2022-11-20T11:14:57;6.63;;;4.00;;
11921;SDS011;6021;51.182;3.160;2022-11-20T11:17:29;6.17;;;3.60;;
11921;SDS011;6021;51.182;3.160;2022-11-20T11:20:00;5.97;;;3.57;;
11921;SDS011;6021;51.182;3.160;2022-11-20T11:22:47;5.20;;;3.73;;
11921;SDS011;6021;51.182;3.160;2022-11-20T11:25:24;4.30;;;3.60;;
11921;SDS011;6021;51.182;3.160;2022-11-20T11:27:55;6.63;;;3.63;;
11921;SDS011;6021;51.182;3.160;2022-11-20T11:30:26;4.67;;;3.80;;
11921;SDS011;6021;51.182;3.160;2022-11-20T11:33:04;5.57;;;3.70;;
11921;SDS011;6021;51.182;3.160;2022-11-20T11:35:33;7.07;;;4.10;;
11921;SDS011;6021;51.182;3.160;2022-11-20T11:38:11;5.33;;;3.47;;
11921;SDS011;6021;51.182;3.160;2022-11-20T11:40:35;5.27;;;3.80;;
11921;SDS011;6021;51.182;3.160;2022-11-20T11:43:05;6.03;;;4.00;;
11921;SDS011;6021;51.182;3.160;2022-11-20T11:45:37;8.30;;;4.13;;
11921;SDS011;6021;51.182;3.160;2022-11-20T11:48:07;7.73;;;4.20;;
11921;SDS011;6021;51.182;3.160;2022-11-20T11:50:36;7.20;;;4.20;;
11921;SDS011;6021;51.182;3.160;2022-11-20T11:53:12;6.83;;;4.43;;
11921;SDS011;6021;51.182;3.160;2022-11-20T11:55:49;6.60;;;4.67;;
11921;SDS011;6021;51.182;3.160;2022-11-20T12:04:17;6.57;;;4.70;;
11921;SDS011;6021;51.182;3.160;2022-11-20T12:09:23;7.70;;;5.33;;
11921;SDS011;6021;51.182;3.160;2022-11-20T12:11:58;6.00;;;4.93;;
11921;SDS011;6021;51.182;3.160;2022-11-20T12:14:43;6.83;;;5.37;;
11921;SDS011;6021;51.182;3.160;2022-11-20T12:17:13;7.27;;;5.10;;
11921;SDS011;6021;51.182;3.160;2022-11-20T12:19:42;6.27;;;5.43;;
11921;SDS011;6021;51.182;3.160;2022-11-20T12:25:03;6.07;;;5.50;;
11921;SDS011;6021;51.182;3.160;2022-11-20T12:28:01;6.30;;;5.50;;
11921;SDS011;6021;51.182;3.160;2022-11-20T12:30:31;6.57;;;5.67;;
11921;SDS011;6021;51.182;3.160;2022-11-20T12:35:38;5.70;;;5.20;;
11921;SDS011;6021;51.182;3.160;2022-11-20T12:38:37;6.97;;;5.57;;
11921;SDS011;6021;51.182;3.160;2022-11-20T12:41:20;6.10;;;5.37;;
11921;SDS011;6021;51.182;3.160;2022-11-20T12:47:09;6.47;;;5.87;;
11921;SDS011;6021;51.182;3.160;2022-11-20T12:49:47;5.77;;;5.20;;
11921;SDS011;6021;51.182;3.160;2022-11-20T12:52:35;6.20;;;5.60;;
11921;SDS011;6021;51.182;3.160;2022-11-20T12:55:21;7.90;;;5.60;;
11921;SDS011;6021;51.182;3.160;2022-11-20T12:58:11;6.03;;;5.40;;
11921;SDS011;6021;51.182;3.160;2022-11-20T13:06:15;6.33;;;5.73;;
11921;SDS011;6021;51.182;3.160;2022-11-20T13:08:52;6.23;;;5.63;;
11921;SDS011;6021;51.182;3.160;2022-11-20T13:14:24;7.60;;;7.00;;
11921;SDS011;6021;51.182;3.160;2022-11-20T13:17:23;7.40;;;6.80;;
11921;SDS011;6021;51.182;3.160;2022-11-20T13:19:56;7.60;;;6.90;;
11921;SDS011;6021;51.182;3.160;2022-11-20T13:22:28;7.57;;;6.87;;
11921;SDS011;6021;51.182;3.160;2022-11-20T13:24:58;6.77;;;6.23;;
11921;SDS011;6021;51.182;3.160;2022-11-20T13:27:27;6.60;;;5.97;;
11921;SDS011;6021;51.182;3.160;2022-11-20T13:30:02;6.30;;;5.70;;
11921;SDS011;6021;51.182;3.160;2022-11-20T13:32:31;5.73;;;5.23;;
11921;SDS011;6021;51.182;3.160;2022-11-20T13:35:04;7.47;;;5.93;;
11921;SDS011;6021;51.182;3.160;2022-11-20T13:37:37;6.60;;;5.10;;
11921;SDS011;6021;51.182;3.160;2022-11-20T13:42:54;5.20;;;4.70;;
11921;SDS011;6021;51.182;3.160;2022-11-20T13:45:29;5.33;;;4.90;;
11921;SDS011;6021;51.182;3.160;2022-11-20T13:47:53;5.30;;;4.87;;
11921;SDS011;6021;51.182;3.160;2022-11-20T13:50:39;5.30;;;4.90;;
11921;SDS011;6021;51.182;3.160;2022-11-20T14:01:19;5.80;;;3.87;;
11921;SDS011;6021;51.182;3.160;2022-11-20T14:03:55;5.13;;;4.30;;
11921;SDS011;6021;51.182;3.160;2022-11-20T14:06:26;6.97;;;4.10;;
11921;SDS011;6021;51.182;3.160;2022-11-20T14:08:58;6.23;;;4.30;;
11921;SDS011;6021;51.182;3.160;2022-11-20T14:11:28;8.90;;;4.20;;
11921;SDS011;6021;51.182;3.160;2022-11-20T14:13:59;10.13;;;3.83;;
11921;SDS011;6021;51.182;3.160;2022-11-20T14:16:35;13.13;;;3.70;;
11921;SDS011;6021;51.182;3.160;2022-11-20T14:22:05;10.47;;;3.00;;
11921;SDS011;6021;51.182;3.160;2022-11-20T14:24:41;11.20;;;3.23;;
11921;SDS011;6021;51.182;3.160;2022-11-20T14:27:14;9.63;;;2.80;;
11921;SDS011;6021;51.182;3.160;2022-11-20T14:29:45;13.07;;;2.97;;
11921;SDS011;6021;51.182;3.160;2022-11-20T14:32:17;12.67;;;3.40;;
11921;SDS011;6021;51.182;3.160;2022-11-20T14:34:48;14.03;;;3.57;;
11921;SDS011;6021;51.182;3.160;2022-11-20T14:37:20;11.27;;;3.23;;
11921;SDS011;6021;51.182;3.160;2022-11-20T14:39:51;13.60;;;3.00;;
11921;SDS011;6021;51.182;3.160;2022-11-20T14:42:24;9.13;;;2.97;;
11921;SDS011;6021;51.182;3.160;2022-11-20T14:45:00;18.20;;;3.57;;
11921;SDS011;6021;51.182;3.160;2022-11-20T14:47:31;12.80;;;3.30;;
11921;SDS011;6021;51.182;3.160;2022-11-20T14:50:02;13.97;;;2.97;;
11921;SDS011;6021;51.182;3.160;2022-11-20T14:52:32;13.47;;;3.43;;
11921;SDS011;6021;51.182;3.160;2022-11-20T14:55:00;16.60;;;3.47;;
11921;SDS011;6021;51.182;3.160;2022-11-20T14:57:35;16.63;;;3.87;;
11921;SDS011;6021;51.182;3.160;2022-11-20T15:00:07;16.80;;;3.50;;
11921;SDS011;6021;51.182;3.160;2022-11-20T15:02:44;17.73;;;3.80;;
11921;SDS011;6021;51.182;3.160;2022-11-20T15:05:14;14.40;;;3.73;;
11921;SDS011;6021;51.182;3.160;2022-11-20T15:07:49;13.50;;;3.33;;
11921;SDS011;6021;51.182;3.160;2022-11-20T15:10:50;11.47;;;2.47;;
11921;SDS011;6021;51.182;3.160;2022-11-20T15:13:24;12.60;;;3.30;;
11921;SDS011;6021;51.182;3.160;2022-11-20T15:16:03;12.10;;;3.20;;
11921;SDS011;6021;51.182;3.160;2022-11-20T15:18:37;11.03;;;3.20;;
11921;SDS011;6021;51.182;3.160;2022-11-20T15:21:11;13.80;;;3.17;;
11921;SDS011;6021;51.182;3.160;2022-11-20T15:23:41;15.20;;;3.57;;
11921;SDS011;6021;51.182;3.160;2022-11-20T15:26:11;13.37;;;3.37;;
11921;SDS011;6021;51.182;3.160;2022-11-20T15:28:44;11.60;;;3.30;;
11921;SDS011;6021;51.182;3.160;2022-11-20T15:31:16;13.83;;;3.30;;
11921;SDS011;6021;51.182;3.160;2022-11-20T15:33:46;12.63;;;3.10;;
11921;SDS011;6021;51.182;3.160;2022-11-20T15:36:15;15.70;;;3.50;;
11921;SDS011;6021;51.182;3.160;2022-11-20T15:38:43;13.70;;;3.30;;
11921;SDS011;6021;51.182;3.160;2022-11-20T15:41:11;12.87;;;3.23;;
11921;SDS011;6021;51.182;3.160;2022-11-20T15:43:40;12.93;;;3.47;;
11921;SDS011;6021;51.182;3.160;2022-11-20T15:46:15;13.20;;;3.20;;
11921;SDS011;6021;51.182;3.160;2022-11-20T15:48:45;13.03;;;3.60;;
11921;SDS011;6021;51.182;3.160;2022-11-20T15:51:41;11.70;;;2.93;;
11921;SDS011;6021;51.182;3.160;2022-11-20T15:54:14;10.53;;;3.30;;
11921;SDS011;6021;51.182;3.160;2022-11-20T15:56:38;17.17;;;3.77;;
11921;SDS011;6021;51.182;3.160;2022-11-20T15:59:07;13.90;;;4.00;;
11921;SDS011;6021;51.182;3.160;2022-11-20T16:01:35;15.13;;;3.40;;
11921;SDS011;6021;51.182;3.160;2022-11-20T16:04:04;13.47;;;3.57;;
11921;SDS011;6021;51.182;3.160;2022-11-20T16:06:34;13.47;;;3.50;;
11921;SDS011;6021;51.182;3.160;2022-11-20T16:09:03;14.90;;;4.00;;
11921;SDS011;6021;51.182;3.160;2022-11-20T16:11:31;14.17;;;3.47;;
11921;SDS011;6021;51.182;3.160;2022-11-20T16:14:02;15.67;;;3.90;;
11921;SDS011;6021;51.182;3.160;2022-11-20T16:16:48;13.97;;;3.70;;
11921;SDS011;6021;51.182;3.160;2022-11-20T16:19:17;11.60;;;3.47;;
11921;SDS011;6021;51.182;3.160;2022-11-20T16:21:45;18.57;;;4.17;;
11921;SDS011;6021;51.182;3.160;2022-11-20T16:24:14;21.40;;;4.40;;
11921;SDS011;6021;51.182;3.160;2022-11-20T16:26:43;14.33;;;3.80;;
11921;SDS011;6021;51.182;3.160;2022-11-20T16:29:12;15.93;;;4.00;;
11921;SDS011;6021;51.182;3.160;2022-11-20T16:31:41;18.60;;;4.33;;
11921;SDS011;6021;51.182;3.160;2022-11-20T16:34:10;15.03;;;4.13;;
11921;SDS011;6021;51.182;3.160;2022-11-20T16:36:39;18.17;;;4.13;;
11921;SDS011;6021;51.182;3.160;2022-11-20T16:39:08;17.80;;;4.77;;
11921;SDS011;6021;51.182;3.160;2022-11-20T16:41:37;17.43;;;4.20;;
11921;SDS011;6021;51.182;3.160;2022-11-20T16:44:06;17.77;;;4.30;;
11921;SDS011;6021;51.182;3.160;2022-11-20T16:46:36;20.63;;;4.90;;
11921;SDS011;6021;51.182;3.160;2022-11-20T16:49:08;14.97;;;4.00;;
11921;SDS011;6021;51.182;3.160;2022-11-20T16:51:39;15.77;;;4.30;;
11921;SDS011;6021;51.182;3.160;2022-11-20T16:54:08;19.67;;;4.43;;
11921;SDS011;6021;51.182;3.160;2022-11-20T16:56:37;16.53;;;4.37;;
11921;SDS011;6021;51.182;3.160;2022-11-20T16:59:06;20.27;;;4.50;;
11921;SDS011;6021;51.182;3.160;2022-11-20T17:04:22;15.30;;;3.93;;
11921;SDS011;6021;51.182;3.160;2022-11-20T17:06:50;17.03;;;4.30;;
11921;SDS011;6021;51.182;3.160;2022-11-20T17:11:54;15.10;;;3.90;;
11921;SDS011;6021;51.182;3.160;2022-11-20T17:33:33;16.90;;;3.53;;
11921;SDS011;6021;51.182;3.160;2022-11-20T17:36:04;14.77;;;3.17;;
11921;SDS011;6021;51.182;3.160;2022-11-20T17:38:34;13.73;;;3.13;;
11921;SDS011;6021;51.182;3.160;2022-11-20T17:41:03;16.30;;;3.60;;
11921;SDS011;6021;51.182;3.160;2022-11-20T17:43:36;12.10;;;2.97;;
11921;SDS011;6021;51.182;3.160;2022-11-20T17:46:06;13.90;;;3.27;;
11921;SDS011;6021;51.182;3.160;2022-11-20T17:48:40;13.37;;;3.57;;
11921;SDS011;6021;51.182;3.160;2022-11-20T17:51:12;13.20;;;3.27;;
11921;SDS011;6021;51.182;3.160;2022-11-20T17:53:41;13.50;;;3.20;;
11921;SDS011;6021;51.182;3.160;2022-11-20T17:56:11;10.20;;;3.17;;
11921;SDS011;6021;51.182;3.160;2022-11-20T17:58:57;13.77;;;3.83;;
11921;SDS011;6021;51.182;3.160;2022-11-20T18:01:26;12.67;;;3.40;;
11921;SDS011;6021;51.182;3.160;2022-11-20T18:03:57;15.90;;;3.40;;
11921;SDS011;6021;51.182;3.160;2022-11-20T18:06:26;11.30;;;3.20;;
11921;SDS011;6021;51.182;3.160;2022-11-20T18:11:39;11.87;;;3.30;;
11921;SDS011;6021;51.182;3.160;2022-11-20T18:14:16;9.80;;;3.33;;
11921;SDS011;6021;51.182;3.160;2022-11-20T18:17:03;13.83;;;3.70;;
11921;SDS011;6021;51.182;3.160;2022-11-20T18:19:34;12.40;;;3.43;;
11921;SDS011;6021;51.182;3.160;2022-11-20T18:22:05;10.67;;;3.10;;
11921;SDS011;6021;51.182;3.160;2022-11-20T18:24:34;11.13;;;3.27;;
11921;SDS011;6021;51.182;3.160;2022-11-20T18:27:05;8.53;;;3.33;;
11921;SDS011;6021;51.182;3.160;2022-11-20T18:29:35;13.90;;;3.63;;
11921;SDS011;6021;51.182;3.160;2022-11-20T18:32:03;13.77;;;3.50;;
11921;SDS011;6021;51.182;3.160;2022-11-20T18:34:32;11.87;;;3.53;;
11921;SDS011;6021;51.182;3.160;2022-11-20T18:37:00;11.30;;;3.30;;
11921;SDS011;6021;51.182;3.160;2022-11-20T18:39:29;12.73;;;3.20;;
11921;SDS011;6021;51.182;3.160;2022-11-20T18:41:57;12.37;;;3.50;;
11921;SDS011;6021;51.182;3.160;2022-11-20T18:44:43;12.37;;;3.33;;
11921;SDS011;6021;51.182;3.160;2022-11-20T18:49:50;12.53;;;3.57;;
11921;SDS011;6021;51.182;3.160;2022-11-20T18:52:25;11.17;;;3.40;;
11921;SDS011;6021;51.182;3.160;2022-11-20T18:54:51;11.27;;;3.63;;
11921;SDS011;6021;51.182;3.160;2022-11-20T18:57:20;12.03;;;3.27;;
11921;SDS011;6021;51.182;3.160;2022-11-20T18:59:50;11.87;;;3.47;;
11921;SDS011;6021;51.182;3.160;2022-11-20T19:02:20;14.10;;;3.97;;
11921;SDS011;6021;51.182;3.160;2022-11-20T19:04:49;12.70;;;3.60;;
11921;SDS011;6021;51.182;3.160;2022-11-20T19:07:17;12.67;;;3.73;;
11921;SDS011;6021;51.182;3.160;2022-11-20T19:09:47;12.73;;;4.30;;
11921;SDS011;6021;51.182;3.160;2022-11-20T19:12:18;14.60;;;4.20;;
11921;SDS011;6021;51.182;3.160;2022-11-20T19:14:46;13.73;;;4.13;;
11921;SDS011;6021;51.182;3.160;2022-11-20T19:17:15;11.90;;;4.03;;
11921;SDS011;6021;51.182;3.160;2022-11-20T19:19:43;10.67;;;4.07;;
11921;SDS011;6021;51.182;3.160;2022-11-20T19:22:12;12.13;;;4.03;;